Airfield :
LOGIN :

Register | Disclaimer

   EN    FR    IT 

 










Legend :    VFR   Marginal VFR   IFR   Intensive IFR   Very Intensive IFR
Visi :
Ceiling :
>= 8 km
>= 3000ft
5 to 8 km
1000 to 3000 ft
1500m to 5 km
500 to 1000 ft
800 to 1500m
200 to 500 ft
< 800m
< 200 ft
Symbols :   Thunderstorms  Fog  Heavy snow  Heavy precipitations  Wind > 20 kt
SIGMETs :     Misc.  Thunderstorms  Icing  Turbulence  Mountain Waves  Volcanic Ashes







- Airport Elevation : 33 ft
- IATA code : MHZ


EGUN - RAF Mildenhall

CURRENT METAR :
  • 181756Z AUTO 23003KT 9999 CLR 02/02 A3045 RMK AO2 SLP315 T00170017 10063 20017 52010 $

EXPIRED METARs :
  • 181656Z AUTO 22004KT 9999 CLR 03/03 A3044 RMK AO2 SLP312 T00250025 $
  • 181556Z AUTO 27004KT 9999 CLR 03/03 A3043 RMK AO2 SLP308 T00270027 $

TAF TAF EGUN
Valid from the 18 at 12:00 until the 19 at 18:00 UTC


181210Z 1812/1918 26009KT 9999 FEW030 QNH3036INS
BECMG 1815/1816 29006KT 5000 BR SCT020 QNH3043INS
TEMPO 1817/1820 3200 BR
BECMG 1820/1821 27006KT 0800 FZFG SCT005 BKN010 620002 QNH3050INS
BECMG 1906/1907 25006KT 0800 FG BKN006 QNH3051INS
BECMG 1909/1910 25009KT 4000 BR BKN008 QNH3053INS TX06/1813Z TNM01/1903Z
No reported NOTAMs for that airfield.



MET'MAP, your aeronautical weather chart ! - Copyright ORBIFLY December 2007 - Disclaimer

ORBIFLY MET'MAP TEAM :

Programming & Development : Alexandra Zaïnal
Concept & Development : Baudouin d'Aumeries
Co-Development & Prog : Marc-Olivier Méhu
Technical & hardware support : Manuel Goepfert

Contact : metmap@orbifly.com




SOURCES & CREDITS :

   NOAA